Time;durP1;ratioP1;P1;durP2;ratioP2;P2;SDS_P1;SDS_P2;PMS_P1;PMS_P2;Temp;Humidity;BMP_temperature;BMP_pressure;BME280_temperature;BME280_humidity;BME280_pressure;Samples;Min_cycle;Max_cycle;Signal;HPM_P1;HPM_P2
2023/08/18 00:02:15;;;;;;;7.60;4.03;;;;;;;;;;12877042;23;20267;-71
2023/08/18 00:07:16;;;;;;;5.75;4.05;;;;;;;;;;12876998;23;20039;-70
2023/08/18 00:12:16;;;;;;;7.53;4.63;;;;;;;;;;12876975;23;20007;-70
2023/08/18 00:17:16;;;;;;;10.80;4.88;;;;;;;;;;12876802;23;20194;-70
2023/08/18 00:22:16;;;;;;;7.78;3.42;;;;;;;;;;12876839;23;20005;-70
2023/08/18 00:27:17;;;;;;;5.70;4.07;;;;;;;;;;12854256;23;20010;-70
2023/08/18 00:32:17;;;;;;;8.50;3.67;;;;;;;;;;12876766;23;20040;-71
2023/08/18 00:37:17;;;;;;;6.82;4.03;;;;;;;;;;12880550;23;20027;-70
2023/08/18 00:42:17;;;;;;;9.90;3.85;;;;;;;;;;12872127;23;20000;-68
2023/08/18 00:47:18;;;;;;;9.95;4.72;;;;;;;;;;12880996;23;20301;-69
2023/08/18 00:52:18;;;;;;;14.10;4.70;;;;;;;;;;12880987;23;19984;-69
2023/08/18 00:57:19;;;;;;;5.50;3.92;;;;;;;;;;12880547;23;20318;-69
2023/08/18 01:02:19;;;;;;;4.90;3.70;;;;;;;;;;12880613;23;19992;-69
2023/08/18 01:07:20;;;;;;;7.28;4.05;;;;;;;;;;12880677;23;19996;-69
2023/08/18 01:12:20;;;;;;;6.45;4.45;;;;;;;;;;12880240;23;20229;-69
2023/08/18 01:17:56;;;;;;;8.00;3.90;;;;;;;;;;12880305;23;20046;-69
2023/08/18 01:23:00;;;;;;;7.93;4.38;;;;;;;;;;12768450;23;20219;-69
2023/08/18 01:28:02;;;;;;;6.97;4.28;;;;;;;;;;12880402;23;20211;-69
2023/08/18 01:33:09;;;;;;;7.97;4.82;;;;;;;;;;12879889;23;20325;-69
2023/08/18 01:38:10;;;;;;;7.18;4.40;;;;;;;;;;12880092;23;20202;-70
2023/08/18 01:43:11;;;;;;;9.38;5.47;;;;;;;;;;12868341;23;20012;-69
2023/08/18 01:48:11;;;;;;;10.02;4.50;;;;;;;;;;12879135;23;19997;-69
2023/08/18 01:53:11;;;;;;;8.82;5.28;;;;;;;;;;12879585;23;19996;-69
2023/08/18 01:58:11;;;;;;;11.23;4.68;;;;;;;;;;12879738;23;20045;-69
2023/08/18 02:03:12;;;;;;;4.95;4.18;;;;;;;;;;12879178;23;19996;-69
2023/08/18 02:08:12;;;;;;;7.97;4.60;;;;;;;;;;12879632;23;20444;-69
2023/08/18 02:13:13;;;;;;;6.30;4.65;;;;;;;;;;12879054;23;20004;-69
2023/08/18 02:18:13;;;;;;;8.45;4.50;;;;;;;;;;12879270;23;20027;-69
2023/08/18 02:23:14;;;;;;;12.25;4.47;;;;;;;;;;12879042;23;20000;-69
2023/08/18 02:28:15;;;;;;;7.73;4.43;;;;;;;;;;12878630;23;19997;-69
2023/08/18 02:33:15;;;;;;;9.07;5.10;;;;;;;;;;12878466;23;20011;-69
2023/08/18 02:38:15;;;;;;;13.35;5.32;;;;;;;;;;12878728;23;19996;-69
2023/08/18 02:43:15;;;;;;;8.57;4.43;;;;;;;;;;12865792;23;20160;-69
2023/08/18 02:48:16;;;;;;;9.48;4.22;;;;;;;;;;12878700;23;20186;-69
2023/08/18 02:53:16;;;;;;;5.13;4.63;;;;;;;;;;12878665;23;20000;-69
2023/08/18 02:58:16;;;;;;;10.02;4.88;;;;;;;;;;12878161;23;20267;-69
2023/08/18 03:03:16;;;;;;;7.70;4.43;;;;;;;;;;12877856;23;19996;-69
2023/08/18 03:08:17;;;;;;;7.80;4.45;;;;;;;;;;12878194;23;19989;-69
2023/08/18 03:13:17;;;;;;;6.03;4.75;;;;;;;;;;12877957;23;19999;-69
2023/08/18 03:18:17;;;;;;;7.07;4.10;;;;;;;;;;12877828;23;20001;-70
2023/08/18 03:23:18;;;;;;;8.23;4.67;;;;;;;;;;12877461;23;20322;-69
2023/08/18 03:28:18;;;;;;;6.50;4.97;;;;;;;;;;12878091;23;20091;-69
2023/08/18 03:33:19;;;;;;;6.93;4.78;;;;;;;;;;12877399;23;20016;-69
2023/08/18 03:38:19;;;;;;;8.65;4.70;;;;;;;;;;12877531;23;20031;-69
2023/08/18 03:43:19;;;;;;;8.98;4.43;;;;;;;;;;12864292;23;20000;-69
2023/08/18 03:48:19;;;;;;;7.97;4.68;;;;;;;;;;12878725;23;20061;-69
2023/08/18 03:53:23;;;;;;;10.40;5.50;;;;;;;;;;12877119;23;19993;-69
2023/08/18 03:58:23;;;;;;;12.52;5.03;;;;;;;;;;12855360;23;20182;-69
2023/08/18 04:03:24;;;;;;;8.25;4.60;;;;;;;;;;12876556;23;20003;-69
2023/08/18 04:08:24;;;;;;;6.43;4.80;;;;;;;;;;12854130;23;20043;-69
2023/08/18 04:13:24;;;;;;;6.55;5.30;;;;;;;;;;12854359;23;19997;-69
2023/08/18 04:18:25;;;;;;;12.83;4.80;;;;;;;;;;12876926;23;20001;-69
2023/08/18 04:23:25;;;;;;;8.77;4.55;;;;;;;;;;12876258;23;20492;-70
2023/08/18 04:28:25;;;;;;;10.43;4.43;;;;;;;;;;12876627;23;20250;-70
2023/08/18 04:33:26;;;;;;;5.93;4.25;;;;;;;;;;12876802;23;20012;-69
2023/08/18 04:38:26;;;;;;;12.82;4.90;;;;;;;;;;12876596;23;20031;-69
2023/08/18 04:43:28;;;;;;;7.05;4.78;;;;;;;;;;12862907;23;20069;-69
2023/08/18 04:48:28;;;;;;;10.73;4.43;;;;;;;;;;12876436;23;19988;-69
2023/08/18 04:53:28;;;;;;;8.48;4.22;;;;;;;;;;12876282;23;20000;-69
2023/08/18 04:58:29;;;;;;;7.97;5.30;;;;;;;;;;12876238;23;20230;-69
2023/08/18 05:03:29;;;;;;;12.40;5.05;;;;;;;;;;12875614;23;20305;-69
2023/08/18 05:08:32;;;;;;;8.88;4.95;;;;;;;;;;12875789;23;19988;-69
2023/08/18 05:13:33;;;;;;;11.57;4.85;;;;;;;;;;12853849;23;20067;-70
2023/08/18 05:18:33;;;;;;;13.43;5.75;;;;;;;;;;12853825;23;20035;-71
2023/08/18 05:23:34;;;;;;;7.60;5.65;;;;;;;;;;12878300;23;20085;-69
2023/08/18 05:28:34;;;;;;;14.93;5.20;;;;;;;;;;12879397;23;19997;-70
2023/08/18 05:33:35;;;;;;;12.40;4.80;;;;;;;;;;12879342;23;20005;-69
2023/08/18 05:38:35;;;;;;;7.35;4.63;;;;;;;;;;12878715;23;19992;-69
2023/08/18 05:43:37;;;;;;;5.53;4.60;;;;;;;;;;12865240;23;20004;-69
2023/08/18 05:48:37;;;;;;;15.32;5.45;;;;;;;;;;12879414;23;20231;-69
2023/08/18 05:53:38;;;;;;;6.15;4.78;;;;;;;;;;12879145;23;20000;-69
2023/08/18 05:58:38;;;;;;;6.68;4.78;;;;;;;;;;12879138;23;20000;-69
2023/08/18 06:03:38;;;;;;;10.15;4.47;;;;;;;;;;12880061;23;20056;-69
2023/08/18 06:08:39;;;;;;;12.00;5.00;;;;;;;;;;12856908;23;20001;-70
2023/08/18 06:13:39;;;;;;;8.35;4.68;;;;;;;;;;12879063;23;20229;-70
2023/08/18 06:18:39;;;;;;;7.00;3.55;;;;;;;;;;12878723;23;20190;-70
2023/08/18 06:23:40;;;;;;;13.48;4.35;;;;;;;;;;12878970;23;20091;-70
2023/08/18 06:28:41;;;;;;;5.78;2.97;;;;;;;;;;12878947;23;19997;-70
2023/08/18 06:33:41;;;;;;;6.18;3.42;;;;;;;;;;12878452;23;20055;-70
2023/08/18 06:38:41;;;;;;;3.88;2.72;;;;;;;;;;12878923;23;20291;-70
2023/08/18 06:43:41;;;;;;;8.75;3.03;;;;;;;;;;12863650;23;20042;-71
2023/08/18 06:48:42;;;;;;;7.35;2.78;;;;;;;;;;12877907;23;20051;-70
2023/08/18 06:53:42;;;;;;;5.87;3.03;;;;;;;;;;12878039;23;19992;-70
2023/08/18 06:58:42;;;;;;;4.03;2.60;;;;;;;;;;12878294;23;20560;-70
2023/08/18 07:03:42;;;;;;;4.78;2.30;;;;;;;;;;12877671;23;20027;-70
2023/08/18 07:08:43;;;;;;;11.02;2.90;;;;;;;;;;12878054;23;20341;-70
2023/08/18 07:13:43;;;;;;;8.00;2.80;;;;;;;;;;12877980;23;19992;-69
2023/08/18 07:18:43;;;;;;;4.03;2.30;;;;;;;;;;12877603;23;20508;-69
2023/08/18 07:23:44;;;;;;;5.13;2.50;;;;;;;;;;12877342;23;20444;-69
2023/08/18 07:28:44;;;;;;;7.05;2.60;;;;;;;;;;12877322;23;20032;-69
2023/08/18 07:33:44;;;;;;;4.75;2.47;;;;;;;;;;12876735;23;20313;-69
2023/08/18 07:38:45;;;;;;;5.88;2.92;;;;;;;;;;12877228;23;20040;-69
2023/08/18 07:43:45;;;;;;;6.37;2.63;;;;;;;;;;12862922;23;20317;-69
2023/08/18 07:48:45;;;;;;;5.88;2.30;;;;;;;;;;12877059;23;20151;-69
2023/08/18 07:53:46;;;;;;;10.88;1.92;;;;;;;;;;12855653;23;20286;-69
2023/08/18 07:58:46;;;;;;;12.75;2.13;;;;;;;;;;12876304;23;20002;-69
2023/08/18 08:03:46;;;;;;;4.20;1.70;;;;;;;;;;12876626;23;20222;-69
2023/08/18 08:08:46;;;;;;;1.92;1.27;;;;;;;;;;12876475;23;19988;-69
2023/08/18 08:13:47;;;;;;;3.28;1.58;;;;;;;;;;12876260;23;20326;-69
2023/08/18 08:18:47;;;;;;;3.40;1.27;;;;;;;;;;12876109;23;19999;-69
2023/08/18 08:23:47;;;;;;;3.38;1.83;;;;;;;;;;12876214;23;20008;-69
2023/08/18 08:28:48;;;;;;;1.95;1.65;;;;;;;;;;12875729;23;20275;-69
2023/08/18 08:33:48;;;;;;;5.70;1.25;;;;;;;;;;12867959;23;20016;-69
2023/08/18 08:38:49;;;;;;;5.63;1.90;;;;;;;;;;12876025;23;20001;-68
2023/08/18 08:43:49;;;;;;;6.38;2.03;;;;;;;;;;12860308;23;20028;-68
2023/08/18 08:48:51;;;;;;;4.70;1.60;;;;;;;;;;12875965;23;20271;-68
2023/08/18 08:53:54;;;;;;;6.18;1.98;;;;;;;;;;12876032;23;20058;-69
2023/08/18 08:58:55;;;;;;;3.03;1.75;;;;;;;;;;12879500;23;20080;-69
2023/08/18 09:03:56;;;;;;;6.40;1.67;;;;;;;;;;12879877;23;20087;-69
2023/08/18 09:08:56;;;;;;;3.13;1.50;;;;;;;;;;12879554;23;20216;-70
2023/08/18 09:13:56;;;;;;;2.50;1.20;;;;;;;;;;12879986;23;19989;-69
2023/08/18 09:18:57;;;;;;;2.25;1.40;;;;;;;;;;12879767;23;20219;-70
2023/08/18 09:23:57;;;;;;;5.47;1.65;;;;;;;;;;12879519;23;20019;-68
2023/08/18 09:28:57;;;;;;;4.85;1.60;;;;;;;;;;12879526;23;20095;-69
2023/08/18 09:33:58;;;;;;;3.53;1.70;;;;;;;;;;12879314;23;20199;-69
2023/08/18 09:39:03;;;;;;;8.60;1.58;;;;;;;;;;12858616;23;19993;-69
2023/08/18 09:44:03;;;;;;;4.80;2.58;;;;;;;;;;12864373;23;20004;-69
2023/08/18 09:49:05;;;;;;;3.77;1.53;;;;;;;;;;12879123;23;20187;-69
2023/08/18 09:54:08;;;;;;;5.32;1.48;;;;;;;;;;12878893;23;20616;-69
2023/08/18 09:59:17;;;;;;;5.50;1.63;;;;;;;;;;12879090;23;20375;-69
2023/08/18 10:04:22;;;;;;;5.95;1.58;;;;;;;;;;12878803;23;20059;-69
2023/08/18 10:09:27;;;;;;;4.80;1.50;;;;;;;;;;12878479;23;19989;-70
2023/08/18 10:14:28;;;;;;;5.78;1.50;;;;;;;;;;12878665;23;20007;-70
2023/08/18 10:19:47;;;;;;;5.03;1.20;;;;;;;;;;12877482;23;20020;-69
2023/08/18 10:24:48;;;;;;;3.42;1.65;;;;;;;;;;12878387;23;19993;-69
2023/08/18 10:29:49;;;;;;;4.13;1.45;;;;;;;;;;12878222;23;20207;-69
2023/08/18 10:34:50;;;;;;;5.93;1.25;;;;;;;;;;12878800;23;20453;-69
2023/08/18 10:39:51;;;;;;;5.05;1.50;;;;;;;;;;12878194;23;20042;-69
2023/08/18 10:44:57;;;;;;;4.93;1.27;;;;;;;;;;12858696;23;20275;-70
2023/08/18 10:49:59;;;;;;;6.05;1.40;;;;;;;;;;12878059;23;19988;-70
2023/08/18 10:54:59;;;;;;;6.72;1.92;;;;;;;;;;12877883;23;19988;-70
2023/08/18 11:00:00;;;;;;;6.50;1.30;;;;;;;;;;12877797;23;19989;-70
2023/08/18 11:05:00;;;;;;;7.57;1.55;;;;;;;;;;12877472;23;20152;-69
2023/08/18 11:10:00;;;;;;;8.73;1.48;;;;;;;;;;12877795;23;20045;-70
2023/08/18 11:15:00;;;;;;;4.53;2.05;;;;;;;;;;12877847;23;20247;-72
2023/08/18 11:20:00;;;;;;;6.07;1.83;;;;;;;;;;12864508;23;20012;-69
2023/08/18 11:25:03;;;;;;;5.95;2.25;;;;;;;;;;12854800;23;20290;-69
2023/08/18 11:30:04;;;;;;;5.97;2.45;;;;;;;;;;12877313;23;20000;-69
2023/08/18 11:35:07;;;;;;;8.15;2.30;;;;;;;;;;12877191;23;20164;-69
2023/08/18 11:40:12;;;;;;;10.80;2.25;;;;;;;;;;12854913;23;20247;-69
2023/08/18 11:45:15;;;;;;;5.05;2.30;;;;;;;;;;12855588;23;19996;-69
2023/08/18 11:50:21;;;;;;;4.68;1.55;;;;;;;;;;12876950;23;20072;-70
2023/08/18 11:55:33;;;;;;;5.82;2.38;;;;;;;;;;12876733;23;20007;-70
2023/08/18 12:00:37;;;;;;;7.30;2.00;;;;;;;;;;12876673;23;19991;-69
2023/08/18 12:05:38;;;;;;;3.90;1.88;;;;;;;;;;12876585;23;19992;-70
2023/08/18 12:10:38;;;;;;;9.85;2.55;;;;;;;;;;12854110;23;20047;-70
2023/08/18 12:15:39;;;;;;;5.00;2.20;;;;;;;;;;12876587;23;20199;-70
2023/08/18 12:20:39;;;;;;;7.37;2.17;;;;;;;;;;12854173;23;20258;-70
2023/08/18 12:25:39;;;;;;;7.93;2.40;;;;;;;;;;12876744;23;20214;-70
2023/08/18 12:30:40;;;;;;;6.50;2.10;;;;;;;;;;12856015;23;19989;-70
2023/08/18 12:35:40;;;;;;;7.07;2.00;;;;;;;;;;12876177;23;19992;-70
2023/08/18 12:40:40;;;;;;;5.22;2.78;;;;;;;;;;12874832;23;19992;-70
2023/08/18 12:45:40;;;;;;;3.40;2.33;;;;;;;;;;12875933;23;20306;-71
2023/08/18 12:50:42;;;;;;;4.30;2.67;;;;;;;;;;12876302;23;19985;-70
2023/08/18 12:55:42;;;;;;;3.88;1.92;;;;;;;;;;12876489;23;20400;-70
2023/08/18 13:00:42;;;;;;;4.30;2.33;;;;;;;;;;12876203;23;20003;-70
2023/08/18 13:05:42;;;;;;;6.35;2.67;;;;;;;;;;12875879;23;20091;-70
2023/08/18 13:10:43;;;;;;;7.03;2.67;;;;;;;;;;12876126;23;20298;-70
2023/08/18 13:15:43;;;;;;;7.78;2.38;;;;;;;;;;12875643;23;20019;-70
2023/08/18 13:20:43;;;;;;;6.68;2.88;;;;;;;;;;12875559;23;20509;-69
2023/08/18 13:25:43;;;;;;;4.78;3.10;;;;;;;;;;12876190;23;20281;-70
2023/08/18 13:30:44;;;;;;;5.15;3.00;;;;;;;;;;12875855;23;20000;-70
2023/08/18 13:35:44;;;;;;;7.07;3.50;;;;;;;;;;12875765;23;20183;-70
2023/08/18 13:40:45;;;;;;;7.28;3.35;;;;;;;;;;12873723;23;20105;-70
2023/08/18 13:45:46;;;;;;;7.93;3.00;;;;;;;;;;12872238;23;20223;-71
2023/08/18 13:50:46;;;;;;;6.22;3.08;;;;;;;;;;12879368;23;20019;-70
2023/08/18 13:55:46;;;;;;;5.28;3.10;;;;;;;;;;12879453;23;19996;-70
2023/08/18 14:00:47;;;;;;;7.35;2.90;;;;;;;;;;12879432;23;20187;-71
2023/08/18 14:05:47;;;;;;;4.90;3.17;;;;;;;;;;12872190;23;20063;-70
2023/08/18 14:10:47;;;;;;;7.30;3.75;;;;;;;;;;12856658;23;20007;-70
2023/08/18 14:15:47;;;;;;;5.00;2.97;;;;;;;;;;12878742;23;19996;-71
2023/08/18 14:20:50;;;;;;;7.05;3.08;;;;;;;;;;12878340;23;20008;-70
2023/08/18 14:25:50;;;;;;;7.07;4.20;;;;;;;;;;12878655;23;20273;-70
2023/08/18 14:30:50;;;;;;;5.60;2.87;;;;;;;;;;12878745;23;19989;-70
2023/08/18 14:35:51;;;;;;;5.97;3.47;;;;;;;;;;12878231;23;20271;-70
2023/08/18 14:40:51;;;;;;;7.72;3.17;;;;;;;;;;12875775;23;19993;-70
2023/08/18 14:45:51;;;;;;;7.72;3.30;;;;;;;;;;12873490;23;20000;-70
2023/08/18 14:50:51;;;;;;;4.88;3.25;;;;;;;;;;12878210;23;20295;-70
2023/08/18 14:55:52;;;;;;;5.10;3.60;;;;;;;;;;12878391;23;20172;-70
2023/08/18 15:00:52;;;;;;;6.65;2.90;;;;;;;;;;12877883;23;19988;-70
2023/08/18 15:05:52;;;;;;;4.40;3.05;;;;;;;;;;12878077;23;20190;-70
2023/08/18 15:10:53;;;;;;;3.73;2.90;;;;;;;;;;12877766;23;19996;-70
2023/08/18 15:15:53;;;;;;;10.83;3.40;;;;;;;;;;12877691;23;20002;-70
2023/08/18 15:20:53;;;;;;;8.00;3.85;;;;;;;;;;12877204;23;20008;-70
2023/08/18 15:25:54;;;;;;;14.07;3.85;;;;;;;;;;12877130;23;20291;-70
2023/08/18 15:30:54;;;;;;;4.88;3.53;;;;;;;;;;12877290;23;20011;-70
2023/08/18 15:35:54;;;;;;;8.20;3.73;;;;;;;;;;12877367;23;19996;-70
2023/08/18 15:40:54;;;;;;;7.70;3.75;;;;;;;;;;12874848;23;20238;-71
2023/08/18 15:45:55;;;;;;;5.13;3.40;;;;;;;;;;12876852;23;20009;-70
2023/08/18 15:50:55;;;;;;;8.73;3.53;;;;;;;;;;12876867;23;19989;-71
2023/08/18 15:55:55;;;;;;;5.85;3.40;;;;;;;;;;12877423;23;19988;-70
2023/08/18 16:00:57;;;;;;;6.30;4.07;;;;;;;;;;12876590;23;20004;-71
2023/08/18 16:06:02;;;;;;;12.57;3.70;;;;;;;;;;12875966;23;20296;-70
2023/08/18 16:11:02;;;;;;;8.32;3.65;;;;;;;;;;12876737;23;20266;-69
2023/08/18 16:16:03;;;;;;;9.63;4.40;;;;;;;;;;12876741;23;19997;-69
2023/08/18 16:21:03;;;;;;;8.45;3.22;;;;;;;;;;12869915;23;20263;-69
2023/08/18 16:26:04;;;;;;;7.43;3.65;;;;;;;;;;12804917;23;20106;-69
2023/08/18 16:31:05;;;;;;;7.00;2.95;;;;;;;;;;12814358;23;19997;-70
2023/08/18 16:36:07;;;;;;;4.03;3.13;;;;;;;;;;12791906;23;20000;-70
2023/08/18 16:41:07;;;;;;;6.25;2.97;;;;;;;;;;12810528;23;20005;-70
2023/08/18 16:46:07;;;;;;;5.33;3.30;;;;;;;;;;12791013;23;20330;-70
2023/08/18 16:51:08;;;;;;;6.70;3.15;;;;;;;;;;12814061;23;20160;-70
2023/08/18 16:56:08;;;;;;;5.25;3.60;;;;;;;;;;12813878;23;20226;-70
2023/08/18 17:01:08;;;;;;;6.43;3.45;;;;;;;;;;12814206;23;20064;-71
2023/08/18 17:06:09;;;;;;;8.45;3.53;;;;;;;;;;12813796;23;20005;-70
2023/08/18 17:11:10;;;;;;;5.88;3.25;;;;;;;;;;12813993;23;19985;-71
2023/08/18 17:16:10;;;;;;;6.03;3.37;;;;;;;;;;12814016;23;19993;-70
2023/08/18 17:21:10;;;;;;;6.75;3.38;;;;;;;;;;12810758;23;20017;-70
2023/08/18 17:26:11;;;;;;;16.48;3.70;;;;;;;;;;12817126;23;20001;-70
2023/08/18 17:31:11;;;;;;;8.70;4.15;;;;;;;;;;12817295;23;19996;-70
2023/08/18 17:36:11;;;;;;;4.18;3.42;;;;;;;;;;12817219;23;20009;-70
2023/08/18 17:41:11;;;;;;;6.60;3.95;;;;;;;;;;12813179;23;20017;-69
2023/08/18 17:46:12;;;;;;;9.85;3.80;;;;;;;;;;12817097;23;20286;-69
2023/08/18 17:51:12;;;;;;;7.07;3.95;;;;;;;;;;12816920;23;20067;-70
2023/08/18 17:56:12;;;;;;;6.37;3.73;;;;;;;;;;12816750;23;19993;-70
2023/08/18 18:01:13;;;;;;;9.15;3.78;;;;;;;;;;12816673;23;20035;-69
2023/08/18 18:06:13;;;;;;;12.27;4.50;;;;;;;;;;12816559;23;20195;-68
2023/08/18 18:11:13;;;;;;;12.18;4.65;;;;;;;;;;12816115;23;19993;-69
2023/08/18 18:16:13;;;;;;;9.00;4.55;;;;;;;;;;12794002;23;20000;-69
2023/08/18 18:21:15;;;;;;;5.65;3.80;;;;;;;;;;12794092;23;20059;-69
2023/08/18 18:26:16;;;;;;;11.80;4.28;;;;;;;;;;12816344;23;20068;-69
2023/08/18 18:31:18;;;;;;;12.98;4.68;;;;;;;;;;12816120;23;19992;-69
2023/08/18 18:36:18;;;;;;;9.57;4.03;;;;;;;;;;12816132;23;19996;-69
2023/08/18 18:41:18;;;;;;;6.88;3.92;;;;;;;;;;12811712;23;20326;-69
2023/08/18 18:46:19;;;;;;;8.53;4.07;;;;;;;;;;12815857;23;19997;-69
2023/08/18 18:51:19;;;;;;;8.43;4.27;;;;;;;;;;12806525;23;20330;-69
2023/08/18 18:56:19;;;;;;;10.93;4.20;;;;;;;;;;12815521;23;20172;-69
2023/08/18 19:01:19;;;;;;;5.13;3.50;;;;;;;;;;12815779;23;20044;-69
2023/08/18 19:06:20;;;;;;;7.05;4.25;;;;;;;;;;12807577;23;20234;-70
2023/08/18 19:11:20;;;;;;;5.85;3.33;;;;;;;;;;12815501;23;19989;-69
2023/08/18 19:16:21;;;;;;;8.30;3.60;;;;;;;;;;12812794;23;20317;-69
2023/08/18 19:21:21;;;;;;;7.10;3.97;;;;;;;;;;12816499;23;20199;-70
2023/08/18 19:26:22;;;;;;;5.22;4.28;;;;;;;;;;12815457;23;20032;-70
2023/08/18 19:31:22;;;;;;;13.15;4.20;;;;;;;;;;12815117;23;20287;-70
2023/08/18 19:36:22;;;;;;;6.65;3.58;;;;;;;;;;12815298;23;19989;-70
2023/08/18 19:41:22;;;;;;;8.07;3.60;;;;;;;;;;12809966;23;20198;-70
2023/08/18 19:46:23;;;;;;;5.00;3.75;;;;;;;;;;12814721;23;20060;-70
2023/08/18 19:51:23;;;;;;;7.95;4.13;;;;;;;;;;12814980;23;19993;-70
2023/08/18 19:56:23;;;;;;;5.95;4.05;;;;;;;;;;12815050;23;20196;-70
2023/08/18 20:01:23;;;;;;;6.25;3.90;;;;;;;;;;12814400;23;20096;-70
2023/08/18 20:06:24;;;;;;;7.13;3.85;;;;;;;;;;12814556;23;20001;-70
2023/08/18 20:11:24;;;;;;;6.47;4.68;;;;;;;;;;12814588;23;20043;-70
2023/08/18 20:16:25;;;;;;;7.53;4.43;;;;;;;;;;12814504;23;19992;-70
2023/08/18 20:21:25;;;;;;;6.53;3.80;;;;;;;;;;12814319;23;20349;-70
2023/08/18 20:26:26;;;;;;;16.40;4.00;;;;;;;;;;12814269;23;20004;-70
2023/08/18 20:31:26;;;;;;;4.53;3.37;;;;;;;;;;12814307;23;20333;-69
2023/08/18 20:36:26;;;;;;;5.07;3.35;;;;;;;;;;12814116;23;19993;-69
2023/08/18 20:41:27;;;;;;;6.87;3.87;;;;;;;;;;12809567;23;20021;-69
2023/08/18 20:46:27;;;;;;;5.80;3.42;;;;;;;;;;12814060;23;20008;-69
2023/08/18 20:51:27;;;;;;;5.40;3.23;;;;;;;;;;12815124;23;20303;-72
2023/08/18 20:56:28;;;;;;;5.90;3.65;;;;;;;;;;12818179;23;20023;-69
2023/08/18 21:01:29;;;;;;;7.95;3.88;;;;;;;;;;12795911;23;20081;-69
2023/08/18 21:06:30;;;;;;;8.23;3.55;;;;;;;;;;12817832;23;20095;-69
2023/08/18 21:11:30;;;;;;;6.90;3.30;;;;;;;;;;12817894;23;19991;-69
2023/08/18 21:16:30;;;;;;;9.10;3.77;;;;;;;;;;12817642;23;20299;-69
2023/08/18 21:21:31;;;;;;;6.20;3.60;;;;;;;;;;12817512;23;20016;-69
2023/08/18 21:26:31;;;;;;;5.43;3.35;;;;;;;;;;12817516;23;20322;-69
2023/08/18 21:31:31;;;;;;;9.32;3.55;;;;;;;;;;12817395;23;19996;-70
2023/08/18 21:36:31;;;;;;;8.93;3.38;;;;;;;;;;12817458;23;20001;-70
2023/08/18 21:41:32;;;;;;;10.27;3.97;;;;;;;;;;12811634;23;20053;-69
2023/08/18 21:46:33;;;;;;;11.38;3.10;;;;;;;;;;12816937;23;20075;-69
2023/08/18 21:51:33;;;;;;;8.18;3.13;;;;;;;;;;12817325;23;19997;-69
2023/08/18 21:56:33;;;;;;;9.53;3.90;;;;;;;;;;12817079;23;19997;-69
2023/08/18 22:01:34;;;;;;;10.15;3.58;;;;;;;;;;12816765;23;19996;-69
2023/08/18 22:06:34;;;;;;;7.25;2.97;;;;;;;;;;12816621;23;20276;-70
2023/08/18 22:11:35;;;;;;;11.50;4.53;;;;;;;;;;12816248;23;20319;-70
2023/08/18 22:16:35;;;;;;;10.30;3.13;;;;;;;;;;12816790;23;20009;-75
2023/08/18 22:21:35;;;;;;;5.05;3.15;;;;;;;;;;12816150;23;20013;-75
2023/08/18 22:26:35;;;;;;;6.75;4.45;;;;;;;;;;12816149;23;20421;-76
2023/08/18 22:31:36;;;;;;;5.18;3.42;;;;;;;;;;12816268;23;19989;-70
2023/08/18 22:36:36;;;;;;;10.05;3.53;;;;;;;;;;12816222;23;20005;-70
2023/08/18 22:41:36;;;;;;;5.65;2.85;;;;;;;;;;12810634;23;20261;-70
2023/08/18 22:46:36;;;;;;;11.98;3.60;;;;;;;;;;12815935;23;20041;-70
2023/08/18 22:51:37;;;;;;;13.10;3.75;;;;;;;;;;12815900;23;20235;-70
2023/08/18 22:56:37;;;;;;;7.75;3.92;;;;;;;;;;12816258;23;20001;-70
2023/08/18 23:01:37;;;;;;;4.20;2.97;;;;;;;;;;12815755;23;19993;-70
2023/08/18 23:06:37;;;;;;;7.53;3.35;;;;;;;;;;12815624;23;20001;-70
2023/08/18 23:11:38;;;;;;;9.30;3.38;;;;;;;;;;12815629;23;19989;-70
2023/08/18 23:16:38;;;;;;;3.88;2.88;;;;;;;;;;12815482;23;19993;-70
2023/08/18 23:21:39;;;;;;;7.18;3.28;;;;;;;;;;12814771;23;20008;-70
2023/08/18 23:26:39;;;;;;;6.27;3.20;;;;;;;;;;12815377;23;20314;-70
2023/08/18 23:31:40;;;;;;;4.18;3.20;;;;;;;;;;12815525;23;20044;-70
2023/08/18 23:36:40;;;;;;;10.73;3.40;;;;;;;;;;12814592;23;19993;-70
2023/08/18 23:41:41;;;;;;;6.20;3.40;;;;;;;;;;12809122;23;20012;-70
2023/08/18 23:46:41;;;;;;;7.40;3.08;;;;;;;;;;12815079;23;20005;-69
2023/08/18 23:51:41;;;;;;;9.13;2.90;;;;;;;;;;12814919;23;20537;-68
2023/08/18 23:56:43;;;;;;;7.18;2.83;;;;;;;;;;12794856;23;20063;-68
